Time;durP1;ratioP1;P1;durP2;ratioP2;P2;SDS_P1;SDS_P2;PMS_P1;PMS_P2;Temp;Humidity;BMP_temperature;BMP_pressure;BME280_temperature;BME280_humidity;BME280_pressure;Samples;Min_cycle;Max_cycle;Signal;HPM_P1;HPM_P2
2022/12/16 00:00:14;;;;;;;;;54.00;46.25;;;;;-0.50;69.86;100063.13;5038403;28;45455;-73
2022/12/16 00:02:40;;;;;;;;;46.00;43.75;;;;;-0.53;69.30;100055.38;5037869;28;45388;-72
2022/12/16 00:05:07;;;;;;;;;50.75;46.00;;;;;-0.52;69.78;100058.84;5038185;28;45439;-72
2022/12/16 00:07:32;;;;;;;;;53.75;43.00;;;;;-0.56;69.52;100055.38;5039016;28;45832;-73
2022/12/16 00:09:58;;;;;;;;;53.50;47.00;;;;;-0.55;69.81;100064.84;5037669;28;45332;-72
2022/12/16 00:12:24;;;;;;;;;48.00;44.25;;;;;-0.56;69.59;100063.13;5037743;28;45251;-71
2022/12/16 00:14:49;;;;;;;;;50.25;45.75;;;;;-0.59;69.60;100057.97;5037698;28;45280;-72
2022/12/16 00:17:15;;;;;;;;;49.25;44.50;;;;;-0.53;69.82;100075.16;5036834;28;46293;-73
2022/12/16 00:19:40;;;;;;;;;56.00;47.25;;;;;-0.60;70.01;100061.44;5037096;28;45334;-71
2022/12/16 00:22:06;;;;;;;;;42.00;40.75;;;;;-0.52;69.72;100074.34;5038400;28;45404;-73
2022/12/16 00:24:31;;;;;;;;;51.75;47.25;;;;;-0.66;69.73;100059.69;5038346;28;45297;-71
2022/12/16 00:26:57;;;;;;;;;46.25;43.00;;;;;-0.56;70.18;100085.50;5037461;28;46294;-75
2022/12/16 00:29:22;;;;;;;;;57.00;47.75;;;;;-0.57;70.24;100086.38;5036856;28;45431;-73
2022/12/16 00:31:48;;;;;;;;;59.25;48.75;;;;;-0.64;69.80;100086.38;5038164;28;45406;-72
2022/12/16 00:34:14;;;;;;;;;56.50;49.00;;;;;-0.64;70.44;100085.53;5038257;28;45285;-74
2022/12/16 00:36:39;;;;;;;;;55.00;46.75;;;;;-0.62;70.32;100094.16;5038534;28;46305;-75
2022/12/16 00:39:05;;;;;;;;;59.25;50.25;;;;;-0.65;70.09;100092.41;5039347;28;45432;-75
2022/12/16 00:41:30;;;;;;;;;55.75;48.75;;;;;-0.62;69.92;100096.75;5038919;28;45680;-73
2022/12/16 00:43:55;;;;;;;;;64.00;54.25;;;;;-0.67;70.12;100085.56;5038397;28;45977;-73
2022/12/16 00:46:21;;;;;;;;;61.25;51.50;;;;;-0.90;70.49;100051.16;5038043;28;49969;-74
2022/12/16 00:48:46;;;;;;;;;56.00;49.25;;;;;-0.63;69.97;100098.44;5021174;28;45443;-74
2022/12/16 00:51:11;;;;;;;;;51.25;45.00;;;;;-0.91;70.67;100051.16;5039548;28;45300;-73
2022/12/16 00:53:37;;;;;;;;;49.00;43.50;;;;;-0.66;70.40;100092.44;5039723;28;45523;-72
2022/12/16 00:56:08;;;;;;;;;50.25;45.00;;;;;-0.68;70.76;100096.75;5039145;28;45335;-71
2022/12/16 00:58:35;;;;;;;;;52.25;46.75;;;;;-0.70;70.41;100096.75;5019286;28;45769;-73
2022/12/16 01:01:01;;;;;;;;;63.75;52.50;;;;;-0.77;71.14;100093.31;5037615;28;45416;-70
2022/12/16 01:03:26;;;;;;;;;55.00;47.50;;;;;-0.71;70.75;100104.50;5037719;28;45503;-73
2022/12/16 01:05:52;;;;;;;;;58.50;49.25;;;;;-0.75;71.06;100098.47;5036984;28;46058;-71
2022/12/16 01:08:18;;;;;;;;;66.50;53.75;;;;;-0.77;71.40;100106.22;5018929;28;45399;-73
2022/12/16 01:10:53;;;;;;;;;63.50;51.50;;;;;-0.78;70.92;100106.22;5037336;28;45299;-69
2022/12/16 01:13:19;;;;;;;;;54.25;47.25;;;;;-0.79;71.38;100105.38;5037375;28;45329;-75
2022/12/16 01:15:45;;;;;;;;;58.00;51.00;;;;;-0.77;71.10;100118.28;5019365;28;47599;-71
2022/12/16 01:18:10;;;;;;;;;61.00;50.50;;;;;-0.84;71.32;100101.94;5036829;28;45525;-74
2022/12/16 01:20:37;;;;;;;;;47.50;44.25;;;;;-0.77;71.45;100119.16;5037351;28;45424;-72
2022/12/16 01:23:02;;;;;;;;;55.25;48.00;;;;;-0.78;71.59;100119.13;5037322;28;45459;-71
2022/12/16 01:25:28;;;;;;;;;62.25;51.00;;;;;-0.78;71.01;100130.34;5036577;28;46056;-69
2022/12/16 01:27:53;;;;;;;;;61.00;49.50;;;;;-0.82;71.63;100123.47;5036151;28;45337;-68
2022/12/16 01:30:19;;;;;;;;;66.75;55.75;;;;;-0.80;71.87;100133.78;5036243;28;45280;-71
2022/12/16 01:32:44;;;;;;;;;58.00;48.50;;;;;-0.79;71.26;100140.66;5035517;28;45533;-71
2022/12/16 01:35:10;;;;;;;;;51.75;46.25;;;;;-0.80;71.49;100142.41;5036229;28;46267;-70
2022/12/16 01:37:35;;;;;;;;;63.25;52.75;;;;;-0.83;71.60;100133.78;5036181;28;45327;-71
2022/12/16 01:40:01;;;;;;;;;62.25;53.00;;;;;-0.80;71.92;100146.69;5036293;28;45524;-70
2022/12/16 01:42:32;;;;;;;;;63.50;49.75;;;;;-0.81;71.55;100151.00;5036230;28;45291;-70
2022/12/16 01:45:34;;;;;;;;;63.25;52.75;;;;;-0.80;72.01;100155.31;5035479;28;47155;-68
2022/12/16 01:48:24;;;;;;;;;57.00;50.00;;;;;-0.79;72.19;100161.31;5036656;28;45244;-73
2022/12/16 01:51:00;;;;;;;;;58.00;50.75;;;;;-0.82;71.96;100161.31;5019016;28;45372;-73
2022/12/16 01:53:25;;;;;;;;;53.50;48.00;;;;;-0.88;71.92;100162.19;5001918;28;45485;-70
2022/12/16 01:55:54;;;;;;;;;57.75;50.50;;;;;-0.81;72.44;100176.84;5035681;28;45397;-72
2022/12/16 01:58:25;;;;;;;;;62.75;52.00;;;;;-0.82;71.91;100180.28;5035870;28;45350;-72
2022/12/16 02:00:50;;;;;;;;;61.25;50.50;;;;;-0.80;72.25;100177.69;5036246;28;45277;-71
2022/12/16 02:03:16;;;;;;;;;60.50;52.75;;;;;-0.88;72.02;100175.09;5036166;28;45257;-73
2022/12/16 02:05:43;;;;;;;;;55.00;49.50;;;;;-0.82;71.91;100185.44;5035970;28;45233;-68
2022/12/16 02:08:08;;;;;;;;;62.00;51.75;;;;;-0.78;71.82;100199.19;5034937;28;46091;-71
2022/12/16 02:10:42;;;;;;;;;61.00;52.25;;;;;-0.80;71.96;100196.63;5036368;28;45310;-69
2022/12/16 02:13:29;;;;;;;;;61.75;52.50;;;;;-0.80;72.00;100194.06;5037045;28;45143;-70
2022/12/16 02:16:04;;;;;;;;;55.75;49.25;;;;;-0.79;72.40;100197.47;5035538;28;45378;-68
2022/12/16 02:18:40;;;;;;;;;56.25;48.25;;;;;-0.80;72.61;100199.22;5036023;28;45282;-72
2022/12/16 02:21:32;;;;;;;;;56.75;45.50;;;;;-0.78;72.76;100199.19;5037218;28;45392;-70
2022/12/16 02:24:35;;;;;;;;;63.25;51.75;;;;;-0.77;72.88;100198.34;5036817;28;45187;-71
2022/12/16 02:27:09;;;;;;;;;52.75;47.25;;;;;-0.76;72.53;100197.47;5036475;28;45448;-74
2022/12/16 02:29:52;;;;;;;;;64.25;53.50;;;;;-0.76;73.08;100206.09;5018812;28;45442;-74
2022/12/16 02:32:24;;;;;;;;;60.75;51.25;;;;;-0.77;72.65;100198.34;5036842;28;45391;-74
2022/12/16 02:35:02;;;;;;;;;58.25;48.50;;;;;-0.76;72.63;100197.47;5020033;28;45432;-73
2022/12/16 02:37:42;;;;;;;;;58.00;48.25;;;;;-0.75;72.85;100202.66;5036441;28;46196;-71
2022/12/16 02:40:40;;;;;;;;;62.50;52.75;;;;;-0.73;73.10;100187.16;5036307;28;45257;-72
2022/12/16 02:43:26;;;;;;;;;61.50;52.75;;;;;-0.72;72.79;100195.78;5035514;28;45608;-69
2022/12/16 02:45:51;;;;;;;;;63.25;53.75;;;;;-0.71;73.44;100188.00;5035286;28;45359;-73
2022/12/16 02:48:17;;;;;;;;;65.75;55.00;;;;;-0.77;73.21;100191.47;5034223;28;46218;-71
2022/12/16 02:50:48;;;;;;;;;61.25;52.75;;;;;-0.80;72.93;100182.84;5035275;28;45345;-73
2022/12/16 02:53:14;;;;;;;;;63.00;53.50;;;;;-0.74;73.31;100191.47;5033834;28;45349;-71
2022/12/16 02:56:02;;;;;;;;;61.00;52.75;;;;;-0.71;73.43;100203.50;5035541;28;45313;-73
2022/12/16 02:58:43;;;;;;;;;69.00;57.25;;;;;-0.71;73.37;100206.09;5034920;28;48166;-73
2022/12/16 03:01:29;;;;;;;;;67.00;55.25;;;;;-0.71;73.66;100200.06;5035072;28;45214;-74
2022/12/16 03:04:02;;;;;;;;;60.50;51.00;;;;;-0.75;73.21;100194.91;5035883;28;45230;-71
2022/12/16 03:06:30;;;;;;;;;62.50;53.25;;;;;-0.71;73.84;100206.09;5030421;28;45433;-72
2022/12/16 03:09:00;;;;;;;;;64.50;54.00;;;;;-0.67;73.68;100212.13;5030432;28;45323;-74
2022/12/16 03:11:28;;;;;;;;;53.00;46.50;;;;;-0.71;73.43;100202.66;5034445;28;45436;-73
2022/12/16 03:13:56;;;;;;;;;61.25;50.25;;;;;-0.66;73.81;100212.13;5033416;28;45342;-74
2022/12/16 03:16:28;;;;;;;;;65.25;54.50;;;;;-0.68;73.54;100211.25;5035278;28;45469;-73
2022/12/16 03:18:58;;;;;;;;;68.25;55.00;;;;;-0.64;73.75;100220.72;5033520;28;46372;-72
2022/12/16 03:21:30;;;;;;;;;61.75;53.50;;;;;-0.62;73.63;100210.41;5021273;28;45396;-74
2022/12/16 03:24:06;;;;;;;;;60.75;48.00;;;;;-0.61;73.83;100218.13;5007187;28;45577;-72
2022/12/16 03:26:43;;;;;;;;;60.50;52.00;;;;;-0.61;73.64;100217.28;5034538;28;45611;-74
2022/12/16 03:29:08;;;;;;;;;61.00;51.25;;;;;-0.60;73.75;100212.13;5034719;28;46457;-72
2022/12/16 03:31:42;;;;;;;;;62.25;53.50;;;;;-0.60;73.48;100212.13;5035143;28;45452;-73
2022/12/16 03:34:31;;;;;;;;;61.00;51.75;;;;;-0.60;74.08;100216.44;5035408;28;45399;-74
2022/12/16 03:37:02;;;;;;;;;65.75;54.50;;;;;-0.61;73.54;100223.31;5016925;28;45450;-73
2022/12/16 03:39:30;;;;;;;;;57.25;49.50;;;;;-0.69;74.16;100206.09;5014659;28;46190;-73
2022/12/16 03:41:56;;;;;;;;;59.25;50.25;;;;;-0.60;73.84;100231.94;5024348;28;45364;-74
2022/12/16 03:44:24;;;;;;;;;64.75;54.00;;;;;-0.61;73.81;100235.38;5035170;28;45317;-77
2022/12/16 03:46:49;;;;;;;;;59.50;51.25;;;;;-0.65;74.25;100238.81;5035993;28;45257;-74
2022/12/16 03:49:15;;;;;;;;;59.75;51.25;;;;;-0.61;73.97;100236.22;5035348;28;45313;-72
2022/12/16 03:51:40;;;;;;;;;60.25;50.75;;;;;-0.61;73.70;100237.97;5034916;28;45245;-74
2022/12/16 03:54:05;;;;;;;;;56.25;48.00;;;;;-0.63;73.58;100232.78;5034274;28;45549;-70
2022/12/16 03:56:31;;;;;;;;;55.25;45.25;;;;;-0.63;73.93;100237.09;5016354;28;45381;-72
2022/12/16 03:58:57;;;;;;;;;59.00;49.25;;;;;-0.64;73.75;100235.38;4980375;28;47070;-71
2022/12/16 04:01:22;;;;;;;;;60.75;49.00;;;;;-0.64;73.96;100245.72;5016731;28;45379;-71
2022/12/16 04:03:48;;;;;;;;;55.75;49.00;;;;;-0.63;73.37;100239.69;5017870;28;45336;-73
2022/12/16 04:06:17;;;;;;;;;52.75;47.25;;;;;-0.69;74.00;100230.19;5018595;28;45384;-73
2022/12/16 04:08:46;;;;;;;;;52.00;45.50;;;;;-0.59;73.93;100244.00;5000502;28;47886;-73
2022/12/16 04:25:11;;;;;;;;;57.75;46.75;;;;;-0.59;73.61;100256.91;5037935;28;45349;-69
2022/12/16 04:27:37;;;;;;;;;49.50;45.00;;;;;-0.54;73.74;100264.63;5019491;28;45387;-70
2022/12/16 04:30:19;;;;;;;;;55.50;47.75;;;;;-0.51;74.01;100272.44;5035720;28;46007;-72
